Time;durP1;ratioP1;P1;durP2;ratioP2;P2;SDS_P1;SDS_P2;PMS_P1;PMS_P2;Temp;Humidity;BMP_temperature;BMP_pressure;BME280_temperature;BME280_humidity;BME280_pressure;Samples;Min_cycle;Max_cycle;Signal;HPM_P1;HPM_P2
2023/07/17 00:02:10;;;;;;;;;;;;;;;28.27;35.06;99773.34;5032855;28;19909;-78
2023/07/17 00:04:36;;;;;;;;;;;;;;;28.25;34.70;99775.53;5032603;28;19912;-78
2023/07/17 00:07:02;;;;;;;;;;;;;;;28.16;35.21;99775.28;5032505;28;19959;-77
2023/07/17 00:09:27;;;;;;;;;;;;;;;28.11;35.02;99777.25;5032458;28;19952;-78
2023/07/17 00:11:52;;;;;;;;;;;;;;;28.01;35.37;99766.50;5032396;28;19913;-77
2023/07/17 00:14:18;;;;;;;;;;;;;;;27.98;35.10;99769.78;5032475;28;19999;-78
2023/07/17 00:16:43;;;;;;;;;;;;;;;27.95;35.32;99764.94;5031921;28;19909;-78
2023/07/17 00:19:08;;;;;;;;;;;;;;;27.90;35.21;99765.81;5032548;28;20370;-77
2023/07/17 00:21:33;;;;;;;;;;;;;;;27.77;36.13;99763.75;5032414;28;19916;-77
2023/07/17 00:23:59;;;;;;;;;;;;;;;27.68;35.92;99762.75;5032192;28;20444;-77
2023/07/17 00:26:24;;;;;;;;;;;;;;;27.63;36.03;99762.81;5032138;28;19928;-77
2023/07/17 00:28:49;;;;;;;;;;;;;;;27.56;36.11;99757.69;5032172;28;19901;-77
2023/07/17 00:31:14;;;;;;;;;;;;;;;27.53;35.79;99767.19;5014528;28;19962;-77
2023/07/17 00:33:40;;;;;;;;;;;;;;;27.46;36.22;99769.41;5032230;28;20390;-78
2023/07/17 00:36:05;;;;;;;;;;;;;;;27.43;36.15;99769.97;5031900;28;20000;-78
2023/07/17 00:38:30;;;;;;;;;;;;;;;27.38;35.89;99771.91;5031926;28;19901;-77
2023/07/17 00:40:56;;;;;;;;;;;;;;;27.27;36.04;99765.75;5014455;28;20377;-78
2023/07/17 00:43:21;;;;;;;;;;;;;;;27.28;36.16;99761.13;5031876;28;20313;-78
2023/07/17 00:45:47;;;;;;;;;;;;;;;27.27;36.42;99764.94;5032050;28;19999;-78
2023/07/17 00:48:13;;;;;;;;;;;;;;;27.28;36.24;99758.44;5032126;28;19983;-78
2023/07/17 00:50:38;;;;;;;;;;;;;;;27.28;36.37;99763.84;5031974;28;19997;-76
2023/07/17 00:53:04;;;;;;;;;;;;;;;27.22;36.23;99772.03;5031868;28;20378;-78
2023/07/17 00:55:30;;;;;;;;;;;;;;;27.27;36.21;99770.38;5031856;28;19909;-78
2023/07/17 00:57:55;;;;;;;;;;;;;;;27.30;36.39;99767.09;5031949;28;20385;-78
2023/07/17 01:00:22;;;;;;;;;;;;;;;27.28;36.42;99769.28;5033080;28;19916;-77
2023/07/17 01:02:49;;;;;;;;;;;;;;;27.29;36.55;99771.69;5032327;28;19955;-78
2023/07/17 01:05:15;;;;;;;;;;;;;;;27.32;36.35;99775.75;5014304;28;20377;-78
2023/07/17 01:07:40;;;;;;;;;;;;;;;27.34;35.91;99774.38;5032138;28;19908;-78
2023/07/17 01:10:06;;;;;;;;;;;;;;;27.29;36.32;99774.41;5032120;28;19948;-78
2023/07/17 01:12:35;;;;;;;;;;;;;;;27.26;36.68;99768.75;5014395;28;19909;-78
2023/07/17 01:15:01;;;;;;;;;;;;;;;27.24;36.41;99774.44;5031623;28;19991;-78
2023/07/17 01:17:26;;;;;;;;;;;;;;;27.20;36.55;99771.50;5031467;28;20373;-78
2023/07/17 01:19:52;;;;;;;;;;;;;;;27.18;36.56;99772.88;5031752;28;19909;-78
2023/07/17 01:22:20;;;;;;;;;;;;;;;27.16;36.64;99773.16;5013890;28;19931;-78
2023/07/17 01:24:46;;;;;;;;;;;;;;;27.11;36.54;99777.81;5031591;28;19913;-78
2023/07/17 01:27:12;;;;;;;;;;;;;;;27.12;36.62;99771.28;5033517;28;19909;-78
2023/07/17 01:29:37;;;;;;;;;;;;;;;27.13;36.72;99768.28;5036017;28;19912;-76
2023/07/17 01:32:02;;;;;;;;;;;;;;;27.14;36.97;99771.81;5036027;28;19909;-78
2023/07/17 01:34:28;;;;;;;;;;;;;;;27.14;36.43;99771.81;5035825;28;19962;-78
2023/07/17 01:36:53;;;;;;;;;;;;;;;27.10;36.56;99774.28;5018045;28;19920;-77
2023/07/17 01:39:18;;;;;;;;;;;;;;;27.07;36.96;99785.69;5035968;28;19952;-77
2023/07/17 01:41:43;;;;;;;;;;;;;;;27.07;36.24;99787.59;5035639;28;20318;-76
2023/07/17 01:44:09;;;;;;;;;;;;;;;27.02;36.90;99780.28;5035656;28;19913;-78
2023/07/17 01:46:34;;;;;;;;;;;;;;;27.07;36.74;99788.38;5035855;28;19963;-78
2023/07/17 01:48:59;;;;;;;;;;;;;;;27.01;36.77;99784.09;5035810;28;20301;-78
2023/07/17 01:51:25;;;;;;;;;;;;;;;26.98;36.65;99783.84;5035735;28;19913;-78
2023/07/17 01:53:50;;;;;;;;;;;;;;;26.98;36.68;99781.94;5035508;28;19913;-78
2023/07/17 01:56:15;;;;;;;;;;;;;;;26.99;36.78;99780.03;5036437;28;19913;-79
2023/07/17 01:58:40;;;;;;;;;;;;;;;27.01;36.34;99778.69;5035435;28;19917;-79
2023/07/17 02:01:07;;;;;;;;;;;;;;;26.94;36.78;99791.69;5017330;28;19909;-78
2023/07/17 02:03:34;;;;;;;;;;;;;;;26.91;36.74;99800.38;5035007;28;19909;-78
2023/07/17 02:05:59;;;;;;;;;;;;;;;26.94;36.43;99802.53;5034991;28;19920;-78
2023/07/17 02:08:24;;;;;;;;;;;;;;;26.92;36.52;99805.53;5034859;28;19917;-78
2023/07/17 02:10:51;;;;;;;;;;;;;;;26.92;36.86;99802.81;5017115;28;19916;-78
2023/07/17 02:13:16;;;;;;;;;;;;;;;26.65;37.49;99801.56;5035384;28;19963;-78
2023/07/17 02:15:41;;;;;;;;;;;;;;;26.49;38.70;99798.91;5035620;28;19909;-77
2023/07/17 02:18:07;;;;;;;;;;;;;;;26.35;38.42;99797.88;5035418;28;19974;-77
2023/07/17 02:20:32;;;;;;;;;;;;;;;26.22;40.29;99795.72;5019202;28;19909;-79
2023/07/17 02:22:57;;;;;;;;;;;;;;;26.04;40.82;99799.00;5036936;28;19908;-79
2023/07/17 02:25:22;;;;;;;;;;;;;;;25.89;41.10;99795.22;5034931;28;19913;-79
2023/07/17 02:27:48;;;;;;;;;;;;;;;25.79;39.24;99800.66;5035201;28;19956;-78
2023/07/17 02:30:13;;;;;;;;;;;;;;;25.72;40.59;99802.81;5035254;28;19913;-78
2023/07/17 02:32:38;;;;;;;;;;;;;;;25.67;41.79;99804.72;5035193;28;19908;-79
2023/07/17 02:35:04;;;;;;;;;;;;;;;25.60;40.70;99811.16;5035076;28;20425;-78
2023/07/17 02:37:29;;;;;;;;;;;;;;;25.51;41.06;99814.69;5035175;28;19908;-78
2023/07/17 02:39:55;;;;;;;;;;;;;;;25.46;42.65;99803.84;5034241;28;20374;-78
2023/07/17 02:42:20;;;;;;;;;;;;;;;25.46;42.03;99809.25;5016805;28;19974;-79
2023/07/17 02:44:46;;;;;;;;;;;;;;;25.45;43.57;99805.75;5034925;28;20008;-77
2023/07/17 02:47:11;;;;;;;;;;;;;;;25.48;42.90;99794.41;5034799;28;19908;-78
2023/07/17 02:49:40;;;;;;;;;;;;;;;25.42;42.23;99803.59;5034793;28;19909;-77
2023/07/17 02:52:05;;;;;;;;;;;;;;;25.42;43.22;99800.06;5034604;28;19916;-78
2023/07/17 02:54:31;;;;;;;;;;;;;;;25.50;42.31;99799.53;5034899;28;19910;-78
2023/07/17 02:56:56;;;;;;;;;;;;;;;25.56;42.29;99801.97;5034351;28;20385;-78
2023/07/17 02:59:21;;;;;;;;;;;;;;;25.56;42.46;99798.44;5016604;28;19924;-78
2023/07/17 03:01:48;;;;;;;;;;;;;;;25.57;43.62;99797.38;5034327;28;19909;-77
2023/07/17 03:04:13;;;;;;;;;;;;;;;25.53;43.35;99790.88;5034011;28;19948;-79
2023/07/17 03:06:38;;;;;;;;;;;;;;;25.57;42.50;99795.47;5034243;28;19959;-78
2023/07/17 03:09:03;;;;;;;;;;;;;;;25.60;42.83;99794.94;5034181;28;20372;-78
2023/07/17 03:11:29;;;;;;;;;;;;;;;25.65;42.89;99791.41;5034299;28;19909;-78
2023/07/17 03:13:54;;;;;;;;;;;;;;;25.71;42.78;99792.25;5033979;28;19915;-78
2023/07/17 03:16:19;;;;;;;;;;;;;;;25.72;42.74;99791.19;5034105;28;19975;-78
2023/07/17 03:18:44;;;;;;;;;;;;;;;25.70;42.33;99796.88;5033956;28;19966;-79
2023/07/17 03:21:10;;;;;;;;;;;;;;;25.75;41.09;99788.75;5033942;28;20302;-78
2023/07/17 03:23:35;;;;;;;;;;;;;;;25.69;43.22;99799.84;5015897;28;19909;-78
2023/07/17 03:26:00;;;;;;;;;;;;;;;25.66;43.06;99790.38;5015920;28;20366;-77
2023/07/17 03:28:25;;;;;;;;;;;;;;;25.65;41.95;99800.38;5033871;28;19991;-78
2023/07/17 03:30:51;;;;;;;;;;;;;;;25.65;41.12;99800.38;5033614;28;19909;-78
2023/07/17 03:33:16;;;;;;;;;;;;;;;25.62;42.89;99794.66;5015737;28;19916;-78
2023/07/17 03:35:41;;;;;;;;;;;;;;;25.55;43.42;99794.13;5033503;28;20015;-78
2023/07/17 03:38:07;;;;;;;;;;;;;;;25.50;42.78;99796.84;5033566;28;20000;-78
2023/07/17 03:40:32;;;;;;;;;;;;;;;25.48;43.32;99793.59;5033578;28;20401;-77
2023/07/17 03:42:58;;;;;;;;;;;;;;;25.46;43.55;99795.75;5033242;28;19988;-78
2023/07/17 03:45:23;;;;;;;;;;;;;;;25.45;43.18;99802.22;5032861;28;19964;-78
2023/07/17 03:47:51;;;;;;;;;;;;;;;25.42;44.49;99808.19;5032793;28;19909;-80
2023/07/17 03:50:17;;;;;;;;;;;;;;;25.40;43.99;99802.22;5031806;28;19916;-78
2023/07/17 03:52:42;;;;;;;;;;;;;;;25.38;43.40;99809.78;5032812;28;19909;-78
2023/07/17 03:55:07;;;;;;;;;;;;;;;25.28;43.98;99806.00;5014866;28;19916;-78
2023/07/17 03:57:33;;;;;;;;;;;;;;;25.24;43.49;99806.78;5032823;28;20374;-78
2023/07/17 03:59:58;;;;;;;;;;;;;;;25.15;45.33;99806.50;5015689;28;19909;-77
2023/07/17 04:02:23;;;;;;;;;;;;;;;25.01;45.14;99808.09;5033167;28;19963;-78
2023/07/17 04:04:50;;;;;;;;;;;;;;;24.91;44.57;99806.13;5033267;28;19917;-78
2023/07/17 04:07:15;;;;;;;;;;;;;;;24.89;44.19;99810.19;5032962;28;19908;-78
2023/07/17 04:09:40;;;;;;;;;;;;;;;24.88;44.78;99819.34;5031864;28;19913;-78
2023/07/17 04:12:06;;;;;;;;;;;;;;;24.90;44.87;99815.31;5032993;28;19905;-78
2023/07/17 04:14:32;;;;;;;;;;;;;;;24.90;45.54;99814.50;5033152;28;20026;-78
2023/07/17 04:16:57;;;;;;;;;;;;;;;24.92;44.69;99817.75;5032952;28;19965;-78
2023/07/17 04:19:23;;;;;;;;;;;;;;;24.98;45.16;99816.72;5015144;28;19952;-78
2023/07/17 04:21:48;;;;;;;;;;;;;;;25.03;44.95;99819.44;5032880;28;19930;-78
2023/07/17 04:24:13;;;;;;;;;;;;;;;25.12;44.54;99819.72;5033023;28;19913;-78
2023/07/17 04:26:38;;;;;;;;;;;;;;;25.08;45.83;99824.84;5032811;28;19908;-78
2023/07/17 04:29:04;;;;;;;;;;;;;;;25.10;44.60;99824.59;5032511;28;20294;-78
2023/07/17 04:31:29;;;;;;;;;;;;;;;25.07;46.09;99823.22;5032194;28;19963;-78
2023/07/17 04:33:54;;;;;;;;;;;;;;;25.15;45.22;99827.31;5014416;28;19960;-78
2023/07/17 04:36:19;;;;;;;;;;;;;;;25.19;44.81;99831.91;5014441;28;20444;-78
2023/07/17 04:38:45;;;;;;;;;;;;;;;25.25;45.42;99833.53;5032293;28;19909;-78
2023/07/17 04:41:10;;;;;;;;;;;;;;;25.30;44.68;99836.28;5031954;28;19909;-78
2023/07/17 04:43:35;;;;;;;;;;;;;;;25.37;44.27;99833.31;5032270;28;20275;-78
2023/07/17 04:46:00;;;;;;;;;;;;;;;25.46;44.77;99842.53;5032370;28;19959;-78
2023/07/17 04:48:26;;;;;;;;;;;;;;;25.54;44.70;99846.59;5032496;28;19901;-77
2023/07/17 04:50:52;;;;;;;;;;;;;;;25.58;44.48;99845.78;5015170;28;20459;-78
2023/07/17 04:53:18;;;;;;;;;;;;;;;25.62;44.72;99844.16;5032770;28;19909;-78
2023/07/17 04:55:43;;;;;;;;;;;;;;;25.70;43.95;99840.13;5032759;28;19931;-78
2023/07/17 04:58:09;;;;;;;;;;;;;;;25.78;44.23;99841.50;5032558;28;19917;-78
2023/07/17 05:00:34;;;;;;;;;;;;;;;25.78;44.43;99844.19;5033116;28;19909;-78
2023/07/17 05:02:59;;;;;;;;;;;;;;;25.81;43.35;99855.28;5032676;28;19909;-78
2023/07/17 05:05:24;;;;;;;;;;;;;;;25.85;44.21;99859.06;5032758;28;20325;-78
2023/07/17 05:07:50;;;;;;;;;;;;;;;25.91;43.74;99857.97;5016680;28;19951;-79
2023/07/17 05:10:15;;;;;;;;;;;;;;;26.01;43.59;99850.94;5036093;28;19909;-79
2023/07/17 05:12:40;;;;;;;;;;;;;;;26.12;43.61;99860.69;5033088;28;19912;-78
2023/07/17 05:15:06;;;;;;;;;;;;;;;26.18;43.32;99857.72;5032241;28;19909;-78
2023/07/17 05:17:31;;;;;;;;;;;;;;;26.21;42.62;99853.66;5032293;28;19909;-78
2023/07/17 05:19:57;;;;;;;;;;;;;;;26.30;43.31;99849.31;5032443;28;19909;-78
2023/07/17 05:22:22;;;;;;;;;;;;;;;26.37;42.30;99849.84;5032511;28;20409;-78
2023/07/17 05:24:48;;;;;;;;;;;;;;;26.42;42.86;99855.25;5031922;28;19913;-78
2023/07/17 05:27:13;;;;;;;;;;;;;;;26.49;42.18;99858.50;5032209;28;19983;-78
2023/07/17 05:29:38;;;;;;;;;;;;;;;26.53;41.95;99864.16;5032857;28;20564;-78
2023/07/17 05:32:04;;;;;;;;;;;;;;;26.57;41.37;99857.13;5033444;28;19920;-79
2023/07/17 05:34:30;;;;;;;;;;;;;;;26.59;40.90;99853.03;5035213;28;19932;-79
2023/07/17 05:36:55;;;;;;;;;;;;;;;26.68;40.88;99852.47;5014814;28;19909;-78
2023/07/17 05:39:20;;;;;;;;;;;;;;;26.76;40.69;99860.06;5032103;28;19909;-79
2023/07/17 05:41:45;;;;;;;;;;;;;;;26.80;40.23;99859.22;5032729;28;19916;-79
2023/07/17 05:44:10;;;;;;;;;;;;;;;26.89;40.25;99862.16;5031981;28;19920;-78
2023/07/17 05:46:36;;;;;;;;;;;;;;;26.95;40.31;99850.22;5013848;28;19916;-76
2023/07/17 05:49:01;;;;;;;;;;;;;;;26.96;39.11;99865.38;5013767;28;20003;-76
2023/07/17 05:51:26;;;;;;;;;;;;;;;27.01;39.82;99859.97;5014194;28;19937;-78
2023/07/17 05:53:52;;;;;;;;;;;;;;;27.13;39.88;99865.88;5031857;28;19916;-77
2023/07/17 05:56:17;;;;;;;;;;;;;;;27.21;40.03;99859.88;5031592;28;19913;-77
2023/07/17 05:58:42;;;;;;;;;;;;;;;27.31;39.77;99850.06;5031542;28;20318;-78
2023/07/17 06:01:07;;;;;;;;;;;;;;;27.35;40.06;99846.50;5031539;28;19909;-77
2023/07/17 06:03:33;;;;;;;;;;;;;;;27.44;40.14;99852.94;5031130;28;20309;-79
2023/07/17 06:05:58;;;;;;;;;;;;;;;27.51;40.28;99858.88;5031735;28;19909;-77
2023/07/17 06:08:23;;;;;;;;;;;;;;;27.53;40.19;99855.91;5027426;28;19975;-77
2023/07/17 06:10:49;;;;;;;;;;;;;;;27.56;40.45;99854.53;5023165;28;19920;-78
2023/07/17 06:13:16;;;;;;;;;;;;;;;27.59;40.06;99846.63;5031483;28;20374;-77
2023/07/17 06:15:41;;;;;;;;;;;;;;;27.66;40.03;99849.88;5032199;28;19920;-78
2023/07/17 06:18:06;;;;;;;;;;;;;;;27.74;39.51;99853.88;5033396;28;19909;-78
2023/07/17 06:20:32;;;;;;;;;;;;;;;27.75;39.66;99842.72;5031492;28;19913;-77
2023/07/17 06:22:57;;;;;;;;;;;;;;;27.77;39.68;99850.59;5034214;28;20310;-77
2023/07/17 06:25:22;;;;;;;;;;;;;;;27.82;39.87;99845.94;5034221;28;20408;-77
2023/07/17 06:27:47;;;;;;;;;;;;;;;27.85;40.17;99842.66;5016763;28;19910;-78
2023/07/17 06:30:13;;;;;;;;;;;;;;;27.88;40.10;99841.28;5014385;28;19963;-78
2023/07/17 06:32:38;;;;;;;;;;;;;;;27.96;39.35;99837.13;4996519;28;19906;-79
2023/07/17 06:35:05;;;;;;;;;;;;;;;27.95;39.61;99832.78;5013959;28;19913;-79
2023/07/17 06:37:30;;;;;;;;;;;;;;;28.01;39.37;99835.19;5013978;28;19963;-77
2023/07/17 06:39:56;;;;;;;;;;;;;;;28.13;39.82;99832.06;5030676;28;20386;-78
2023/07/17 06:42:21;;;;;;;;;;;;;;;28.19;39.65;99825.50;5033964;28;19913;-78
2023/07/17 06:44:46;;;;;;;;;;;;;;;28.25;38.79;99829.03;5016105;28;20382;-78
2023/07/17 06:47:11;;;;;;;;;;;;;;;28.30;38.79;99827.06;5033897;28;19956;-77
2023/07/17 06:49:36;;;;;;;;;;;;;;;28.27;39.33;99824.13;5033682;28;19909;-78
2023/07/17 06:52:02;;;;;;;;;;;;;;;28.35;38.38;99821.59;5030797;28;19927;-78
2023/07/17 06:54:27;;;;;;;;;;;;;;;28.44;38.73;99822.56;5031760;28;19919;-79
2023/07/17 06:56:52;;;;;;;;;;;;;;;28.56;38.51;99824.06;5030583;28;20305;-78
2023/07/17 06:59:18;;;;;;;;;;;;;;;28.63;38.54;99822.63;5032627;28;19983;-77
2023/07/17 07:01:43;;;;;;;;;;;;;;;28.67;38.69;99817.41;5033857;28;19948;-77
2023/07/17 07:04:08;;;;;;;;;;;;;;;28.71;38.08;99826.59;5029789;28;20000;-78
2023/07/17 07:06:34;;;;;;;;;;;;;;;28.68;38.18;99819.03;5033287;28;19913;-79
2023/07/17 07:08:59;;;;;;;;;;;;;;;28.67;38.09;99818.22;5014730;28;19913;-79
2023/07/17 07:11:24;;;;;;;;;;;;;;;28.72;37.48;99817.34;5031878;28;19913;-79
2023/07/17 07:13:49;;;;;;;;;;;;;;;28.79;37.58;99824.03;5030213;28;19913;-80
2023/07/17 07:16:15;;;;;;;;;;;;;;;28.82;37.62;99817.22;5031729;28;19944;-78
2023/07/17 07:18:41;;;;;;;;;;;;;;;28.83;37.43;99818.81;5030604;28;19912;-76
2023/07/17 07:21:06;;;;;;;;;;;;;;;28.92;37.69;99816.28;5032254;28;19919;-77
2023/07/17 07:23:32;;;;;;;;;;;;;;;29.04;37.43;99814.78;5032920;28;19916;-78
2023/07/17 07:25:57;;;;;;;;;;;;;;;29.16;37.10;99816.25;5022038;28;19921;-79
2023/07/17 07:28:22;;;;;;;;;;;;;;;29.23;36.90;99811.25;5030854;28;19913;-78
2023/07/17 07:30:53;;;;;;;;;;;;;;;29.26;36.63;99811.47;5031255;28;19921;-77
2023/07/17 07:33:18;;;;;;;;;;;;;;;29.24;37.20;99797.38;5030826;28;19917;-78
2023/07/17 07:35:46;;;;;;;;;;;;;;;29.36;36.65;99802.34;5030654;28;19972;-78
2023/07/17 07:38:11;;;;;;;;;;;;;;;29.47;36.99;99808.47;5013467;28;19913;-78
2023/07/17 07:40:37;;;;;;;;;;;;;;;29.50;36.34;99803.25;5032756;28;19909;-78
2023/07/17 07:43:02;;;;;;;;;;;;;;;29.53;36.40;99804.56;5032702;28;20071;-79
2023/07/17 07:45:27;;;;;;;;;;;;;;;29.59;36.20;99812.34;5019716;28;19946;-77
2023/07/17 07:47:52;;;;;;;;;;;;;;;29.54;36.64;99804.28;5013235;28;19952;-79
2023/07/17 07:50:18;;;;;;;;;;;;;;;29.56;36.67;99802.06;5013044;28;19909;-77
2023/07/17 07:52:43;;;;;;;;;;;;;;;29.71;36.81;99811.88;5032505;28;19916;-78
2023/07/17 07:55:08;;;;;;;;;;;;;;;29.79;36.11;99810.41;5030474;28;19996;-78
2023/07/17 07:57:34;;;;;;;;;;;;;;;29.87;35.92;99801.56;5008044;28;19928;-79
2023/07/17 07:59:59;;;;;;;;;;;;;;;29.98;36.17;99803.00;5032309;28;20453;-77
2023/07/17 08:02:24;;;;;;;;;;;;;;;30.09;35.69;99798.22;5023799;28;19913;-78
2023/07/17 08:04:50;;;;;;;;;;;;;;;30.09;35.66;99809.09;5012297;28;19917;-78
2023/07/17 08:07:15;;;;;;;;;;;;;;;30.05;35.83;99798.00;4995038;28;20449;-78
2023/07/17 08:09:40;;;;;;;;;;;;;;;30.09;35.62;99790.03;5013074;28;19932;-78
2023/07/17 08:12:06;;;;;;;;;;;;;;;30.15;35.76;99797.00;5012649;28;19917;-78
2023/07/17 08:14:31;;;;;;;;;;;;;;;30.04;35.46;99761.78;5012429;28;19917;-78
2023/07/17 08:16:56;;;;;;;;;;;;;;;30.32;35.60;99800.75;5012550;28;19909;-78
2023/07/17 08:19:21;;;;;;;;;;;;;;;30.35;35.08;99791.97;4994960;28;19916;-78
2023/07/17 08:21:47;;;;;;;;;;;;;;;30.47;34.95;99791.50;4996176;28;19960;-77
2023/07/17 08:24:12;;;;;;;;;;;;;;;30.57;35.44;99788.56;5013484;28;19920;-76
2023/07/17 08:26:40;;;;;;;;;;;;;;;30.73;35.08;99788.25;5012563;28;19952;-77
2023/07/17 08:29:06;;;;;;;;;;;;;;;30.84;35.06;99787.72;5022265;28;19912;-79
2023/07/17 08:31:34;;;;;;;;;;;;;;;30.94;34.24;99790.22;5026731;28;19912;-77
2023/07/17 08:34:03;;;;;;;;;;;;;;;30.96;34.46;99777.09;5032227;28;19909;-79
2023/07/17 08:36:29;;;;;;;;;;;;;;;31.12;34.45;99776.75;4999589;28;19982;-78
2023/07/17 08:38:54;;;;;;;;;;;;;;;31.25;34.73;99770.50;5012253;28;20378;-78
2023/07/17 08:41:21;;;;;;;;;;;;;;;31.26;33.99;99772.91;5012821;28;19996;-77
2023/07/17 08:43:47;;;;;;;;;;;;;;;31.33;34.25;99768.94;5012835;28;19909;-78
2023/07/17 08:46:13;;;;;;;;;;;;;;;31.43;34.02;99765.97;5012871;28;19924;-78
2023/07/17 08:48:40;;;;;;;;;;;;;;;31.56;34.12;99765.09;5030073;28;19909;-79
2023/07/17 08:51:07;;;;;;;;;;;;;;;31.68;33.80;99767.25;5035304;28;20287;-79
2023/07/17 08:53:34;;;;;;;;;;;;;;;31.82;33.69;99760.59;5031859;28;19905;-77
2023/07/17 08:55:59;;;;;;;;;;;;;;;31.89;33.42;99760.16;5014043;28;19909;-76
2023/07/17 08:58:27;;;;;;;;;;;;;;;32.00;33.01;99761.53;5031569;28;19928;-77
2023/07/17 09:00:52;;;;;;;;;;;;;;;32.09;33.22;99762.34;5031749;28;19909;-76
2023/07/17 09:03:18;;;;;;;;;;;;;;;32.21;33.24;99761.75;5031412;28;19916;-79
2023/07/17 09:05:43;;;;;;;;;;;;;;;32.31;33.15;99752.50;5031328;28;19913;-78
2023/07/17 09:08:09;;;;;;;;;;;;;;;32.48;33.26;99756.06;5031354;28;19916;-78
2023/07/17 09:10:36;;;;;;;;;;;;;;;32.64;32.11;99758.34;5031558;28;19909;-78
2023/07/17 09:13:02;;;;;;;;;;;;;;;32.79;32.41;99753.28;5031546;28;19909;-76
2023/07/17 09:15:28;;;;;;;;;;;;;;;32.92;31.94;99756.19;5031555;28;19909;-78
2023/07/17 09:17:54;;;;;;;;;;;;;;;33.04;32.59;99757.16;5031903;28;19916;-76
2023/07/17 09:20:19;;;;;;;;;;;;;;;33.14;32.23;99754.09;5031549;28;19916;-76
2023/07/17 09:22:45;;;;;;;;;;;;;;;33.26;31.17;99747.97;5013748;28;19909;-78
2023/07/17 09:25:11;;;;;;;;;;;;;;;33.31;31.32;99750.56;5030928;28;19936;-76
2023/07/17 09:27:45;;;;;;;;;;;;;;;33.48;31.84;99750.56;5022321;28;19913;-77
2023/07/17 09:30:12;;;;;;;;;;;;;;;33.70;31.56;99755.03;5027809;28;20004;-76
2023/07/17 09:32:37;;;;;;;;;;;;;;;33.97;31.57;99744.81;5024134;28;19931;-77
2023/07/17 09:35:06;;;;;;;;;;;;;;;34.15;30.08;99738.13;5029878;28;20401;-78
2023/07/17 09:37:32;;;;;;;;;;;;;;;34.30;29.96;99731.28;5031234;28;20374;-76
2023/07/17 09:39:58;;;;;;;;;;;;;;;34.40;30.04;99733.69;5001254;28;20023;-77
2023/07/17 09:42:24;;;;;;;;;;;;;;;34.51;31.02;99739.59;5028814;28;20009;-76
2023/07/17 09:44:53;;;;;;;;;;;;;;;34.72;28.62;99732.97;5027713;28;19920;-78
2023/07/17 09:47:19;;;;;;;;;;;;;;;34.89;29.72;99731.25;5013573;28;19915;-79
2023/07/17 09:49:45;;;;;;;;;;;;;;;35.02;28.09;99730.22;5033904;28;19916;-77
2023/07/17 09:52:11;;;;;;;;;;;;;;;35.18;29.23;99728.44;5032467;28;19971;-78
2023/07/17 09:54:37;;;;;;;;;;;;;;;35.35;29.74;99728.31;5014217;28;19916;-78
2023/07/17 09:57:03;;;;;;;;;;;;;;;35.55;28.79;99725.84;5014751;28;19921;-78
2023/07/17 09:59:31;;;;;;;;;;;;;;;35.76;28.22;99723.03;5045624;28;20374;-78
2023/07/17 10:01:59;;;;;;;;;;;;;;;35.86;25.82;99719.88;5050568;28;20011;-79
2023/07/17 10:04:45;;;;;;;;;;;;;;;35.90;28.53;99718.84;5053854;28;20415;-77
2023/07/17 10:07:13;;;;;;;;;;;;;;;36.16;27.55;99717.69;5054585;28;20416;-78
2023/07/17 10:09:39;;;;;;;;;;;;;;;36.29;27.45;99709.13;5052903;28;19962;-77
2023/07/17 10:12:05;;;;;;;;;;;;;;;36.43;26.11;99711.53;5053779;28;20005;-78
2023/07/17 10:14:31;;;;;;;;;;;;;;;36.50;27.96;99714.50;5053072;28;19963;-77
2023/07/17 10:16:56;;;;;;;;;;;;;;;36.56;27.34;99712.31;5052795;28;20312;-78
2023/07/17 10:19:25;;;;;;;;;;;;;;;36.60;25.61;99700.28;5053594;28;19917;-77
2023/07/17 10:21:54;;;;;;;;;;;;;;;36.69;25.28;99697.38;5052028;28;20317;-78
2023/07/17 10:24:23;;;;;;;;;;;;;;;36.84;26.88;99693.13;5054408;28;19919;-78
2023/07/17 10:26:49;;;;;;;;;;;;;;;36.94;26.53;99689.06;5054454;28;19999;-78
2023/07/17 10:29:14;;;;;;;;;;;;;;;37.08;26.12;99693.00;5052306;28;20620;-79
2023/07/17 10:31:47;;;;;;;;;;;;;;;37.22;26.21;99687.91;5050585;28;19916;-77
2023/07/17 10:34:13;;;;;;;;;;;;;;;37.33;24.79;99677.22;5050647;28;19912;-77
2023/07/17 10:36:39;;;;;;;;;;;;;;;37.43;25.85;99675.88;5053026;28;19915;-77
2023/07/17 10:39:05;;;;;;;;;;;;;;;37.60;25.80;99677.50;5054045;28;19920;-77
2023/07/17 10:41:30;;;;;;;;;;;;;;;37.78;23.91;99678.75;5049169;28;19909;-77
2023/07/17 10:43:55;;;;;;;;;;;;;;;37.91;25.33;99679.50;5053984;28;19908;-77
2023/07/17 10:46:31;;;;;;;;;;;;;;;38.01;26.02;99673.44;5054072;28;19909;-75
2023/07/17 10:49:06;;;;;;;;;;;;;;;38.16;24.70;99678.16;5053970;28;20305;-77
2023/07/17 10:51:32;;;;;;;;;;;;;;;38.32;24.45;99667.06;5031146;28;19916;-77
2023/07/17 10:53:57;;;;;;;;;;;;;;;38.51;24.54;99667.09;5044704;28;19913;-78
2023/07/17 10:56:23;;;;;;;;;;;;;;;38.57;24.95;99657.34;5046164;28;19909;-78
2023/07/17 10:58:49;;;;;;;;;;;;;;;38.64;23.46;99656.75;5024895;28;20046;-79
2023/07/17 11:01:15;;;;;;;;;;;;;;;38.68;24.14;99654.88;5030666;28;19975;-77
2023/07/17 11:03:42;;;;;;;;;;;;;;;38.80;24.96;99654.72;5047831;28;19961;-78
2023/07/17 11:06:08;;;;;;;;;;;;;;;38.92;25.34;99657.31;5052861;28;20031;-78
2023/07/17 11:08:33;;;;;;;;;;;;;;;39.03;24.64;99652.00;5053476;28;20061;-78
2023/07/17 11:10:59;;;;;;;;;;;;;;;39.18;23.84;99653.91;5053779;28;19909;-76
2023/07/17 11:13:29;;;;;;;;;;;;;;;39.31;24.64;99644.25;5053358;28;20388;-76
2023/07/17 11:15:54;;;;;;;;;;;;;;;39.30;23.73;99648.19;5053390;28;19994;-77
2023/07/17 11:18:19;;;;;;;;;;;;;;;39.44;24.76;99644.91;5053638;28;20427;-79
2023/07/17 11:20:44;;;;;;;;;;;;;;;39.52;23.04;99637.56;5053467;28;19915;-78
2023/07/17 11:23:10;;;;;;;;;;;;;;;39.61;22.15;99646.41;5053484;28;19909;-78
2023/07/17 11:25:36;;;;;;;;;;;;;;;39.53;24.98;99637.19;5053252;28;20408;-77
2023/07/17 11:28:01;;;;;;;;;;;;;;;39.54;25.32;99632.47;5053473;28;19915;-77
2023/07/17 11:30:28;;;;;;;;;;;;;;;39.51;23.24;99635.97;5035096;28;20281;-78
2023/07/17 11:32:59;;;;;;;;;;;;;;;39.48;23.51;99629.19;5053053;28;19916;-79
2023/07/17 11:35:39;;;;;;;;;;;;;;;39.45;23.71;99629.91;5035205;28;19990;-77
2023/07/17 11:38:08;;;;;;;;;;;;;;;39.66;24.22;99635.81;5035010;28;19908;-78
2023/07/17 11:40:47;;;;;;;;;;;;;;;39.88;22.90;99625.09;5052837;28;19908;-77
2023/07/17 11:43:13;;;;;;;;;;;;;;;40.03;23.26;99622.19;5053017;28;20431;-77
2023/07/17 11:45:40;;;;;;;;;;;;;;;40.28;22.94;99621.75;5029132;28;19971;-75
2023/07/17 11:48:05;;;;;;;;;;;;;;;40.17;23.96;99613.31;5052808;28;19955;-78
2023/07/17 11:50:30;;;;;;;;;;;;;;;40.33;23.54;99626.97;5052693;28;19956;-79
2023/07/17 11:53:05;;;;;;;;;;;;;;;40.49;22.67;99615.72;5044164;28;19913;-77
2023/07/17 11:55:34;;;;;;;;;;;;;;;40.62;23.33;99620.63;5052377;28;19916;-78
2023/07/17 11:57:59;;;;;;;;;;;;;;;40.74;21.83;99616.81;5025568;28;19918;-79
2023/07/17 12:00:24;;;;;;;;;;;;;;;40.73;21.43;99617.97;4997425;28;19913;-77
2023/07/17 12:02:50;;;;;;;;;;;;;;;40.85;21.68;99612.19;4993648;28;20000;-76
2023/07/17 12:05:15;;;;;;;;;;;;;;;40.88;22.78;99605.94;5001247;28;20335;-77
2023/07/17 12:07:41;;;;;;;;;;;;;;;40.92;23.37;99609.53;5016973;28;19922;-76
2023/07/17 12:10:07;;;;;;;;;;;;;;;40.96;22.66;99609.56;5012933;28;19909;-76
2023/07/17 12:12:33;;;;;;;;;;;;;;;41.09;22.65;99604.53;4998937;28;20410;-78
2023/07/17 12:14:58;;;;;;;;;;;;;;;41.12;22.75;99596.28;5009135;28;19920;-75
2023/07/17 12:17:23;;;;;;;;;;;;;;;41.21;22.62;99596.78;5010109;28;19921;-77
2023/07/17 12:19:48;;;;;;;;;;;;;;;41.28;22.25;99590.50;5012633;28;20323;-77
2023/07/17 12:22:14;;;;;;;;;;;;;;;41.35;22.42;99590.56;5011227;28;20015;-77
2023/07/17 12:24:39;;;;;;;;;;;;;;;41.44;22.63;99593.00;5010029;28;19917;-76
2023/07/17 12:27:04;;;;;;;;;;;;;;;41.50;22.79;99589.47;5012490;28;19966;-77
2023/07/17 12:29:30;;;;;;;;;;;;;;;41.48;22.10;99582.72;5010942;28;19948;-75
2023/07/17 12:31:55;;;;;;;;;;;;;;;41.48;21.94;99582.72;5011971;28;19921;-78
2023/07/17 12:34:20;;;;;;;;;;;;;;;41.52;21.42;99584.34;5010993;28;19909;-76
2023/07/17 12:36:45;;;;;;;;;;;;;;;41.57;22.08;99575.66;5011159;28;20294;-78
2023/07/17 12:39:12;;;;;;;;;;;;;;;41.64;22.16;99569.44;5009611;28;19920;-78
2023/07/17 12:41:37;;;;;;;;;;;;;;;41.71;21.22;99572.25;5008679;28;19910;-78